sensor_id;sensor_type;location;lat;lon;timestamp;temperature;humidity
6538;DHT22;3302;52.508;13.454;2023-09-12T00:01:46;21.40;99.90
6538;DHT22;3302;52.508;13.454;2023-09-12T00:04:13;21.40;99.90
6538;DHT22;3302;52.508;13.454;2023-09-12T00:06:39;21.40;99.90
6538;DHT22;3302;52.508;13.454;2023-09-12T00:09:04;21.30;99.90
6538;DHT22;3302;52.508;13.454;2023-09-12T00:11:34;21.40;99.90
6538;DHT22;3302;52.508;13.454;2023-09-12T00:14:00;21.30;99.90
6538;DHT22;3302;52.508;13.454;2023-09-12T00:16:25;21.30;99.90
6538;DHT22;3302;52.508;13.454;2023-09-12T00:18:51;21.30;99.90
6538;DHT22;3302;52.508;13.454;2023-09-12T00:21:17;21.30;99.90
6538;DHT22;3302;52.508;13.454;2023-09-12T00:23:43;21.30;99.90
6538;DHT22;3302;52.508;13.454;2023-09-12T00:26:09;21.20;99.90
6538;DHT22;3302;52.508;13.454;2023-09-12T00:28:34;21.30;99.90
6538;DHT22;3302;52.508;13.454;2023-09-12T00:31:00;21.30;99.90
6538;DHT22;3302;52.508;13.454;2023-09-12T00:33:26;21.20;99.90
6538;DHT22;3302;52.508;13.454;2023-09-12T00:35:52;21.20;99.90
6538;DHT22;3302;52.508;13.454;2023-09-12T00:38:18;21.20;99.90
6538;DHT22;3302;52.508;13.454;2023-09-12T00:40:44;21.20;99.90
6538;DHT22;3302;52.508;13.454;2023-09-12T00:43:10;21.20;99.90
6538;DHT22;3302;52.508;13.454;2023-09-12T00:45:36;21.00;99.90
6538;DHT22;3302;52.508;13.454;2023-09-12T00:48:04;20.90;99.90
6538;DHT22;3302;52.508;13.454;2023-09-12T00:50:31;20.80;99.90
6538;DHT22;3302;52.508;13.454;2023-09-12T00:52:59;20.90;99.90
6538;DHT22;3302;52.508;13.454;2023-09-12T00:55:25;21.00;99.90
6538;DHT22;3302;52.508;13.454;2023-09-12T00:57:53;21.00;99.90
6538;DHT22;3302;52.508;13.454;2023-09-12T01:00:18;20.90;99.90
6538;DHT22;3302;52.508;13.454;2023-09-12T01:02:46;20.90;99.90
6538;DHT22;3302;52.508;13.454;2023-09-12T01:05:13;20.90;99.90
6538;DHT22;3302;52.508;13.454;2023-09-12T01:07:40;20.90;99.90
6538;DHT22;3302;52.508;13.454;2023-09-12T01:10:07;20.90;99.90
6538;DHT22;3302;52.508;13.454;2023-09-12T01:12:33;20.90;99.90
6538;DHT22;3302;52.508;13.454;2023-09-12T01:14:59;20.90;99.90
6538;DHT22;3302;52.508;13.454;2023-09-12T01:17:26;20.70;99.90
6538;DHT22;3302;52.508;13.454;2023-09-12T01:19:53;20.60;99.90
6538;DHT22;3302;52.508;13.454;2023-09-12T01:23:00;20.50;99.90
6538;DHT22;3302;52.508;13.454;2023-09-12T01:25:59;20.60;99.90
6538;DHT22;3302;52.508;13.454;2023-09-12T01:28:30;20.70;99.90
6538;DHT22;3302;52.508;13.454;2023-09-12T01:30:58;20.60;99.90
6538;DHT22;3302;52.508;13.454;2023-09-12T01:33:25;20.70;99.90
6538;DHT22;3302;52.508;13.454;2023-09-12T01:35:51;20.60;99.90
6538;DHT22;3302;52.508;13.454;2023-09-12T01:38:17;20.70;99.90
6538;DHT22;3302;52.508;13.454;2023-09-12T01:40:49;20.60;99.90
6538;DHT22;3302;52.508;13.454;2023-09-12T01:43:17;20.50;99.90
6538;DHT22;3302;52.508;13.454;2023-09-12T01:45:45;20.60;99.90
6538;DHT22;3302;52.508;13.454;2023-09-12T01:48:11;20.50;99.90
6538;DHT22;3302;52.508;13.454;2023-09-12T01:50:39;20.50;99.90
6538;DHT22;3302;52.508;13.454;2023-09-12T01:53:05;20.40;99.90
6538;DHT22;3302;52.508;13.454;2023-09-12T01:55:31;20.60;99.90
6538;DHT22;3302;52.508;13.454;2023-09-12T01:57:57;20.50;99.90
6538;DHT22;3302;52.508;13.454;2023-09-12T02:00:23;20.50;99.90
6538;DHT22;3302;52.508;13.454;2023-09-12T02:02:50;20.50;99.90
6538;DHT22;3302;52.508;13.454;2023-09-12T02:05:18;20.50;99.90
6538;DHT22;3302;52.508;13.454;2023-09-12T02:07:46;20.50;99.90
6538;DHT22;3302;52.508;13.454;2023-09-12T02:10:12;20.50;99.90
6538;DHT22;3302;52.508;13.454;2023-09-12T02:12:38;20.40;99.90
6538;DHT22;3302;52.508;13.454;2023-09-12T02:15:05;20.30;99.90
6538;DHT22;3302;52.508;13.454;2023-09-12T02:17:31;20.30;99.90
6538;DHT22;3302;52.508;13.454;2023-09-12T02:19:56;20.30;99.90
6538;DHT22;3302;52.508;13.454;2023-09-12T02:22:22;20.40;99.90
6538;DHT22;3302;52.508;13.454;2023-09-12T02:24:49;20.30;99.90
6538;DHT22;3302;52.508;13.454;2023-09-12T02:27:15;20.40;99.90
6538;DHT22;3302;52.508;13.454;2023-09-12T02:29:41;20.30;99.90
6538;DHT22;3302;52.508;13.454;2023-09-12T02:32:08;20.30;99.90
6538;DHT22;3302;52.508;13.454;2023-09-12T02:34:34;20.10;99.90
6538;DHT22;3302;52.508;13.454;2023-09-12T02:37:00;20.00;99.90
6538;DHT22;3302;52.508;13.454;2023-09-12T02:39:26;20.00;99.90
6538;DHT22;3302;52.508;13.454;2023-09-12T02:41:52;19.90;99.90
6538;DHT22;3302;52.508;13.454;2023-09-12T02:44:18;19.90;99.90
6538;DHT22;3302;52.508;13.454;2023-09-12T02:46:44;19.90;99.90
6538;DHT22;3302;52.508;13.454;2023-09-12T02:49:09;19.80;99.90
6538;DHT22;3302;52.508;13.454;2023-09-12T02:51:39;19.90;99.90
6538;DHT22;3302;52.508;13.454;2023-09-12T02:54:05;20.00;99.90
6538;DHT22;3302;52.508;13.454;2023-09-12T02:56:31;20.00;99.90
6538;DHT22;3302;52.508;13.454;2023-09-12T02:58:57;19.80;99.90
6538;DHT22;3302;52.508;13.454;2023-09-12T03:01:23;19.70;99.90
6538;DHT22;3302;52.508;13.454;2023-09-12T03:03:51;19.80;99.90
6538;DHT22;3302;52.508;13.454;2023-09-12T03:06:16;19.80;99.90
6538;DHT22;3302;52.508;13.454;2023-09-12T03:08:47;19.80;99.90
6538;DHT22;3302;52.508;13.454;2023-09-12T03:11:13;19.70;99.90
6538;DHT22;3302;52.508;13.454;2023-09-12T03:13:42;19.60;99.90
6538;DHT22;3302;52.508;13.454;2023-09-12T03:16:14;19.60;99.90
6538;DHT22;3302;52.508;13.454;2023-09-12T03:18:40;19.50;99.90
6538;DHT22;3302;52.508;13.454;2023-09-12T03:21:06;19.50;99.90
6538;DHT22;3302;52.508;13.454;2023-09-12T03:23:32;19.30;99.90
6538;DHT22;3302;52.508;13.454;2023-09-12T03:26:05;19.30;99.90
6538;DHT22;3302;52.508;13.454;2023-09-12T03:28:31;19.20;99.90
6538;DHT22;3302;52.508;13.454;2023-09-12T03:31:08;19.20;99.90
6538;DHT22;3302;52.508;13.454;2023-09-12T03:33:34;19.10;99.90
6538;DHT22;3302;52.508;13.454;2023-09-12T03:36:00;19.20;99.90
6538;DHT22;3302;52.508;13.454;2023-09-12T03:38:26;19.10;99.90
6538;DHT22;3302;52.508;13.454;2023-09-12T03:40:51;19.10;99.90
6538;DHT22;3302;52.508;13.454;2023-09-12T03:43:17;19.00;99.90
6538;DHT22;3302;52.508;13.454;2023-09-12T03:45:43;19.00;99.90
6538;DHT22;3302;52.508;13.454;2023-09-12T03:48:09;19.10;99.90
6538;DHT22;3302;52.508;13.454;2023-09-12T03:50:34;19.20;99.90
6538;DHT22;3302;52.508;13.454;2023-09-12T03:53:00;19.00;99.90
6538;DHT22;3302;52.508;13.454;2023-09-12T03:55:27;19.10;99.90
6538;DHT22;3302;52.508;13.454;2023-09-12T03:57:53;19.00;99.90
6538;DHT22;3302;52.508;13.454;2023-09-12T04:00:19;19.00;99.90
6538;DHT22;3302;52.508;13.454;2023-09-12T04:02:44;19.10;99.90
6538;DHT22;3302;52.508;13.454;2023-09-12T04:05:10;19.00;99.90
6538;DHT22;3302;52.508;13.454;2023-09-12T04:07:36;19.00;99.90
6538;DHT22;3302;52.508;13.454;2023-09-12T04:10:02;19.20;99.90
6538;DHT22;3302;52.508;13.454;2023-09-12T04:12:28;19.20;99.90
6538;DHT22;3302;52.508;13.454;2023-09-12T04:14:54;19.30;99.90
6538;DHT22;3302;52.508;13.454;2023-09-12T04:17:23;19.40;99.90
6538;DHT22;3302;52.508;13.454;2023-09-12T04:19:49;19.40;99.90
6538;DHT22;3302;52.508;13.454;2023-09-12T04:22:15;19.40;99.90
6538;DHT22;3302;52.508;13.454;2023-09-12T04:24:41;19.40;99.90
6538;DHT22;3302;52.508;13.454;2023-09-12T04:27:07;19.20;99.90
6538;DHT22;3302;52.508;13.454;2023-09-12T04:29:34;19.20;99.90
6538;DHT22;3302;52.508;13.454;2023-09-12T04:32:02;19.20;99.90
6538;DHT22;3302;52.508;13.454;2023-09-12T04:34:29;19.10;99.90
6538;DHT22;3302;52.508;13.454;2023-09-12T04:36:55;19.20;99.90
6538;DHT22;3302;52.508;13.454;2023-09-12T04:39:21;19.10;99.90
6538;DHT22;3302;52.508;13.454;2023-09-12T04:41:47;19.10;99.90
6538;DHT22;3302;52.508;13.454;2023-09-12T04:44:12;19.10;99.90
6538;DHT22;3302;52.508;13.454;2023-09-12T04:46:38;19.10;99.90
6538;DHT22;3302;52.508;13.454;2023-09-12T04:49:04;19.20;99.90
6538;DHT22;3302;52.508;13.454;2023-09-12T04:51:30;19.30;99.90
6538;DHT22;3302;52.508;13.454;2023-09-12T04:53:57;19.20;99.90
6538;DHT22;3302;52.508;13.454;2023-09-12T04:56:23;19.40;99.90
6538;DHT22;3302;52.508;13.454;2023-09-12T04:58:50;19.40;99.90
6538;DHT22;3302;52.508;13.454;2023-09-12T05:01:16;19.20;99.90
6538;DHT22;3302;52.508;13.454;2023-09-12T05:03:43;19.10;99.90
6538;DHT22;3302;52.508;13.454;2023-09-12T05:06:10;19.00;99.90
6538;DHT22;3302;52.508;13.454;2023-09-12T05:08:36;19.20;99.90
6538;DHT22;3302;52.508;13.454;2023-09-12T05:11:01;19.30;99.90
6538;DHT22;3302;52.508;13.454;2023-09-12T05:13:29;19.20;99.90
6538;DHT22;3302;52.508;13.454;2023-09-12T05:15:55;19.50;99.90
6538;DHT22;3302;52.508;13.454;2023-09-12T05:18:22;19.60;99.90
6538;DHT22;3302;52.508;13.454;2023-09-12T05:20:48;19.40;99.90
6538;DHT22;3302;52.508;13.454;2023-09-12T05:23:14;19.30;99.90
6538;DHT22;3302;52.508;13.454;2023-09-12T05:25:40;19.40;99.90
6538;DHT22;3302;52.508;13.454;2023-09-12T05:28:05;19.50;99.90
6538;DHT22;3302;52.508;13.454;2023-09-12T05:30:31;19.60;99.90
6538;DHT22;3302;52.508;13.454;2023-09-12T05:32:57;19.70;99.90
6538;DHT22;3302;52.508;13.454;2023-09-12T05:35:23;19.80;99.90
6538;DHT22;3302;52.508;13.454;2023-09-12T05:37:49;19.80;99.90
6538;DHT22;3302;52.508;13.454;2023-09-12T05:40:15;19.60;99.90
6538;DHT22;3302;52.508;13.454;2023-09-12T05:42:41;19.70;99.90
6538;DHT22;3302;52.508;13.454;2023-09-12T05:45:07;19.90;99.90
6538;DHT22;3302;52.508;13.454;2023-09-12T05:47:33;20.10;99.90
6538;DHT22;3302;52.508;13.454;2023-09-12T05:49:59;20.00;99.90
6538;DHT22;3302;52.508;13.454;2023-09-12T05:52:26;19.80;99.90
6538;DHT22;3302;52.508;13.454;2023-09-12T05:54:52;19.70;99.90
6538;DHT22;3302;52.508;13.454;2023-09-12T05:57:18;19.80;99.90
6538;DHT22;3302;52.508;13.454;2023-09-12T05:59:43;19.80;99.90
6538;DHT22;3302;52.508;13.454;2023-09-12T06:02:09;19.80;99.90
6538;DHT22;3302;52.508;13.454;2023-09-12T06:04:36;20.00;99.90
6538;DHT22;3302;52.508;13.454;2023-09-12T06:07:02;20.00;99.90
6538;DHT22;3302;52.508;13.454;2023-09-12T06:09:29;20.10;99.90
6538;DHT22;3302;52.508;13.454;2023-09-12T06:11:55;20.10;99.90
6538;DHT22;3302;52.508;13.454;2023-09-12T06:14:20;20.10;99.90
6538;DHT22;3302;52.508;13.454;2023-09-12T06:16:46;20.10;99.90
6538;DHT22;3302;52.508;13.454;2023-09-12T06:19:12;20.20;99.90
6538;DHT22;3302;52.508;13.454;2023-09-12T06:21:40;20.20;99.90
6538;DHT22;3302;52.508;13.454;2023-09-12T06:24:15;20.40;99.90
6538;DHT22;3302;52.508;13.454;2023-09-12T06:26:41;20.50;99.90
6538;DHT22;3302;52.508;13.454;2023-09-12T06:29:07;20.50;99.60
6538;DHT22;3302;52.508;13.454;2023-09-12T06:31:33;20.60;99.80
6538;DHT22;3302;52.508;13.454;2023-09-12T06:33:59;20.70;99.50
6538;DHT22;3302;52.508;13.454;2023-09-12T06:36:26;20.90;99.00
6538;DHT22;3302;52.508;13.454;2023-09-12T06:38:52;21.10;98.70
6538;DHT22;3302;52.508;13.454;2023-09-12T06:41:19;21.10;99.30
6538;DHT22;3302;52.508;13.454;2023-09-12T06:43:45;21.10;98.90
6538;DHT22;3302;52.508;13.454;2023-09-12T06:46:11;21.20;98.60
6538;DHT22;3302;52.508;13.454;2023-09-12T06:48:36;21.30;98.60
6538;DHT22;3302;52.508;13.454;2023-09-12T06:51:08;21.40;98.20
6538;DHT22;3302;52.508;13.454;2023-09-12T06:53:35;21.50;97.10
6538;DHT22;3302;52.508;13.454;2023-09-12T06:56:05;21.70;96.80
6538;DHT22;3302;52.508;13.454;2023-09-12T06:58:31;21.80;95.80
6538;DHT22;3302;52.508;13.454;2023-09-12T07:01:07;21.90;95.00
6538;DHT22;3302;52.508;13.454;2023-09-12T07:03:33;22.00;94.80
6538;DHT22;3302;52.508;13.454;2023-09-12T07:06:00;22.00;93.60
6538;DHT22;3302;52.508;13.454;2023-09-12T07:08:26;22.10;93.70
6538;DHT22;3302;52.508;13.454;2023-09-12T07:10:52;22.20;93.40
6538;DHT22;3302;52.508;13.454;2023-09-12T07:13:23;22.40;93.60
6538;DHT22;3302;52.508;13.454;2023-09-12T07:15:50;22.40;93.40
6538;DHT22;3302;52.508;13.454;2023-09-12T07:18:16;22.50;92.60
6538;DHT22;3302;52.508;13.454;2023-09-12T07:20:42;22.60;92.20
6538;DHT22;3302;52.508;13.454;2023-09-12T07:23:08;22.70;92.30
6538;DHT22;3302;52.508;13.454;2023-09-12T07:25:41;22.70;92.50
6538;DHT22;3302;52.508;13.454;2023-09-12T07:28:07;22.80;91.80
6538;DHT22;3302;52.508;13.454;2023-09-12T07:30:33;22.90;91.20
6538;DHT22;3302;52.508;13.454;2023-09-12T07:32:59;23.00;91.40
6538;DHT22;3302;52.508;13.454;2023-09-12T07:35:25;23.20;91.30
6538;DHT22;3302;52.508;13.454;2023-09-12T07:37:51;23.20;91.40
6538;DHT22;3302;52.508;13.454;2023-09-12T07:40:17;23.30;91.00
6538;DHT22;3302;52.508;13.454;2023-09-12T07:42:43;23.30;91.30
6538;DHT22;3302;52.508;13.454;2023-09-12T07:45:09;23.40;90.90
6538;DHT22;3302;52.508;13.454;2023-09-12T07:47:35;23.40;90.60
6538;DHT22;3302;52.508;13.454;2023-09-12T07:50:01;23.50;90.10
6538;DHT22;3302;52.508;13.454;2023-09-12T07:52:27;23.60;90.30
6538;DHT22;3302;52.508;13.454;2023-09-12T07:54:59;23.70;89.90
6538;DHT22;3302;52.508;13.454;2023-09-12T07:57:25;23.80;90.10
6538;DHT22;3302;52.508;13.454;2023-09-12T07:59:51;23.90;89.70
6538;DHT22;3302;52.508;13.454;2023-09-12T08:02:17;24.00;90.00
6538;DHT22;3302;52.508;13.454;2023-09-12T08:04:42;24.10;89.50
6538;DHT22;3302;52.508;13.454;2023-09-12T08:07:08;24.20;90.10
6538;DHT22;3302;52.508;13.454;2023-09-12T08:09:54;24.20;89.40
6538;DHT22;3302;52.508;13.454;2023-09-12T08:12:22;24.30;88.80
6538;DHT22;3302;52.508;13.454;2023-09-12T08:14:48;24.50;88.00
6538;DHT22;3302;52.508;13.454;2023-09-12T08:17:14;24.60;88.40
6538;DHT22;3302;52.508;13.454;2023-09-12T08:19:41;24.70;87.20
6538;DHT22;3302;52.508;13.454;2023-09-12T08:22:07;24.70;86.90
6538;DHT22;3302;52.508;13.454;2023-09-12T08:24:34;24.80;86.50
6538;DHT22;3302;52.508;13.454;2023-09-12T08:27:00;24.80;85.30
6538;DHT22;3302;52.508;13.454;2023-09-12T08:29:28;25.00;85.20
6538;DHT22;3302;52.508;13.454;2023-09-12T08:31:54;25.00;84.90
6538;DHT22;3302;52.508;13.454;2023-09-12T08:34:21;25.10;84.50
6538;DHT22;3302;52.508;13.454;2023-09-12T08:36:47;25.20;84.60
6538;DHT22;3302;52.508;13.454;2023-09-12T08:39:15;25.40;83.60
6538;DHT22;3302;52.508;13.454;2023-09-12T08:41:42;25.40;83.10
6538;DHT22;3302;52.508;13.454;2023-09-12T08:44:09;25.40;81.80
6538;DHT22;3302;52.508;13.454;2023-09-12T08:46:35;25.60;81.80
6538;DHT22;3302;52.508;13.454;2023-09-12T08:49:04;25.70;80.80
6538;DHT22;3302;52.508;13.454;2023-09-12T08:51:30;25.70;80.50
6538;DHT22;3302;52.508;13.454;2023-09-12T08:53:57;25.70;80.30
6538;DHT22;3302;52.508;13.454;2023-09-12T08:56:23;25.80;79.90
6538;DHT22;3302;52.508;13.454;2023-09-12T08:58:51;25.90;80.00
6538;DHT22;3302;52.508;13.454;2023-09-12T09:01:18;25.90;79.30
6538;DHT22;3302;52.508;13.454;2023-09-12T09:03:44;25.90;78.50
6538;DHT22;3302;52.508;13.454;2023-09-12T09:06:12;26.00;79.00
6538;DHT22;3302;52.508;13.454;2023-09-12T09:08:39;26.00;78.40
6538;DHT22;3302;52.508;13.454;2023-09-12T09:11:06;26.20;78.40
6538;DHT22;3302;52.508;13.454;2023-09-12T09:13:32;26.30;78.50
6538;DHT22;3302;52.508;13.454;2023-09-12T09:16:15;26.40;78.40
6538;DHT22;3302;52.508;13.454;2023-09-12T09:19:02;26.50;76.30
6538;DHT22;3302;52.508;13.454;2023-09-12T09:21:30;26.50;76.80
6538;DHT22;3302;52.508;13.454;2023-09-12T09:24:08;26.60;75.70
6538;DHT22;3302;52.508;13.454;2023-09-12T09:26:48;26.70;75.40
6538;DHT22;3302;52.508;13.454;2023-09-12T09:29:17;26.80;75.80
6538;DHT22;3302;52.508;13.454;2023-09-12T09:31:45;26.80;76.30
6538;DHT22;3302;52.508;13.454;2023-09-12T09:34:15;27.00;76.70
6538;DHT22;3302;52.508;13.454;2023-09-12T09:36:47;27.00;77.30
6538;DHT22;3302;52.508;13.454;2023-09-12T09:39:13;27.00;77.70
6538;DHT22;3302;52.508;13.454;2023-09-12T09:41:39;27.10;78.10
6538;DHT22;3302;52.508;13.454;2023-09-12T09:44:07;27.00;78.60
6538;DHT22;3302;52.508;13.454;2023-09-12T09:46:35;26.80;80.00
6538;DHT22;3302;52.508;13.454;2023-09-12T09:49:02;26.60;82.40
6538;DHT22;3302;52.508;13.454;2023-09-12T09:51:30;26.60;83.50
6538;DHT22;3302;52.508;13.454;2023-09-12T09:53:57;26.70;83.00
6538;DHT22;3302;52.508;13.454;2023-09-12T09:56:25;26.50;83.60
6538;DHT22;3302;52.508;13.454;2023-09-12T09:58:55;26.50;84.20
6538;DHT22;3302;52.508;13.454;2023-09-12T10:01:23;26.60;84.40
6538;DHT22;3302;52.508;13.454;2023-09-12T10:03:50;26.80;84.60
6538;DHT22;3302;52.508;13.454;2023-09-12T10:06:17;26.70;84.90
6538;DHT22;3302;52.508;13.454;2023-09-12T10:08:50;26.80;84.50
6538;DHT22;3302;52.508;13.454;2023-09-12T10:11:16;26.80;85.30
6538;DHT22;3302;52.508;13.454;2023-09-12T10:13:57;26.60;85.00
6538;DHT22;3302;52.508;13.454;2023-09-12T10:16:24;26.60;86.40
6538;DHT22;3302;52.508;13.454;2023-09-12T10:21:30;26.60;87.00
6538;DHT22;3302;52.508;13.454;2023-09-12T10:23:59;26.50;87.80
6538;DHT22;3302;52.508;13.454;2023-09-12T10:26:30;26.60;88.40
6538;DHT22;3302;52.508;13.454;2023-09-12T10:28:57;26.60;88.40
6538;DHT22;3302;52.508;13.454;2023-09-12T10:31:24;26.60;87.70
6538;DHT22;3302;52.508;13.454;2023-09-12T10:33:51;26.80;86.50
6538;DHT22;3302;52.508;13.454;2023-09-12T10:36:18;26.90;86.80
6538;DHT22;3302;52.508;13.454;2023-09-12T10:38:47;26.90;84.10
6538;DHT22;3302;52.508;13.454;2023-09-12T10:41:15;26.80;83.50
6538;DHT22;3302;52.508;13.454;2023-09-12T10:43:42;26.90;83.50
6538;DHT22;3302;52.508;13.454;2023-09-12T10:46:09;27.00;83.10
6538;DHT22;3302;52.508;13.454;2023-09-12T10:48:38;27.00;82.80
6538;DHT22;3302;52.508;13.454;2023-09-12T10:51:08;27.10;82.70
6538;DHT22;3302;52.508;13.454;2023-09-12T10:53:35;27.20;82.50
6538;DHT22;3302;52.508;13.454;2023-09-12T10:56:18;27.10;81.80
6538;DHT22;3302;52.508;13.454;2023-09-12T11:01:44;27.10;81.20
6538;DHT22;3302;52.508;13.454;2023-09-12T11:06:53;27.40;80.90
6538;DHT22;3302;52.508;13.454;2023-09-12T11:09:26;27.40;80.30
6538;DHT22;3302;52.508;13.454;2023-09-12T11:12:02;27.50;80.00
6538;DHT22;3302;52.508;13.454;2023-09-12T11:14:28;27.50;80.50
6538;DHT22;3302;52.508;13.454;2023-09-12T11:19:50;27.40;80.60
6538;DHT22;3302;52.508;13.454;2023-09-12T11:22:28;27.40;81.10
6538;DHT22;3302;52.508;13.454;2023-09-12T11:24:57;27.70;80.00
6538;DHT22;3302;52.508;13.454;2023-09-12T11:27:24;27.70;80.00
6538;DHT22;3302;52.508;13.454;2023-09-12T11:29:50;27.90;79.00
6538;DHT22;3302;52.508;13.454;2023-09-12T11:32:35;27.70;78.90
6538;DHT22;3302;52.508;13.454;2023-09-12T11:35:07;27.80;79.80
6538;DHT22;3302;52.508;13.454;2023-09-12T11:37:34;28.00;79.20
6538;DHT22;3302;52.508;13.454;2023-09-12T11:40:22;27.90;79.30
6538;DHT22;3302;52.508;13.454;2023-09-12T11:42:48;28.00;79.00
6538;DHT22;3302;52.508;13.454;2023-09-12T11:45:18;28.00;79.40
6538;DHT22;3302;52.508;13.454;2023-09-12T11:47:46;27.90;80.00
6538;DHT22;3302;52.508;13.454;2023-09-12T11:50:30;27.90;80.00
6538;DHT22;3302;52.508;13.454;2023-09-12T11:53:05;28.00;79.80
6538;DHT22;3302;52.508;13.454;2023-09-12T11:55:36;28.10;79.80
6538;DHT22;3302;52.508;13.454;2023-09-12T11:58:02;28.10;79.90
6538;DHT22;3302;52.508;13.454;2023-09-12T12:00:29;28.10;79.20
6538;DHT22;3302;52.508;13.454;2023-09-12T12:02:55;27.90;79.70
6538;DHT22;3302;52.508;13.454;2023-09-12T12:05:22;27.80;80.10
6538;DHT22;3302;52.508;13.454;2023-09-12T12:07:48;28.00;79.80
6538;DHT22;3302;52.508;13.454;2023-09-12T12:10:16;28.00;79.50
6538;DHT22;3302;52.508;13.454;2023-09-12T12:12:45;27.90;78.80
6538;DHT22;3302;52.508;13.454;2023-09-12T12:15:13;28.00;78.70
6538;DHT22;3302;52.508;13.454;2023-09-12T12:17:42;28.00;79.10
6538;DHT22;3302;52.508;13.454;2023-09-12T12:20:11;27.90;79.20
6538;DHT22;3302;52.508;13.454;2023-09-12T12:22:40;28.00;78.90
6538;DHT22;3302;52.508;13.454;2023-09-12T12:25:10;27.90;78.40
6538;DHT22;3302;52.508;13.454;2023-09-12T12:27:41;27.80;78.40
6538;DHT22;3302;52.508;13.454;2023-09-12T12:30:09;27.70;79.10
6538;DHT22;3302;52.508;13.454;2023-09-12T12:32:45;27.90;78.70
6538;DHT22;3302;52.508;13.454;2023-09-12T12:35:22;28.00;78.90
6538;DHT22;3302;52.508;13.454;2023-09-12T12:37:55;28.10;78.00
6538;DHT22;3302;52.508;13.454;2023-09-12T12:40:24;28.10;78.00
6538;DHT22;3302;52.508;13.454;2023-09-12T12:42:50;28.10;78.00
6538;DHT22;3302;52.508;13.454;2023-09-12T12:45:19;28.10;77.90
6538;DHT22;3302;52.508;13.454;2023-09-12T12:47:45;28.20;78.00
6538;DHT22;3302;52.508;13.454;2023-09-12T12:50:15;28.20;77.20
6538;DHT22;3302;52.508;13.454;2023-09-12T12:52:42;28.20;77.40
6538;DHT22;3302;52.508;13.454;2023-09-12T12:55:10;28.20;77.10
6538;DHT22;3302;52.508;13.454;2023-09-12T12:57:40;28.30;76.30
6538;DHT22;3302;52.508;13.454;2023-09-12T13:00:11;28.30;75.90
6538;DHT22;3302;52.508;13.454;2023-09-12T13:02:38;28.30;75.70
6538;DHT22;3302;52.508;13.454;2023-09-12T13:05:06;28.20;75.60
6538;DHT22;3302;52.508;13.454;2023-09-12T13:07:34;28.30;75.90
6538;DHT22;3302;52.508;13.454;2023-09-12T13:10:03;28.40;75.40
6538;DHT22;3302;52.508;13.454;2023-09-12T13:12:30;28.40;75.20
6538;DHT22;3302;52.508;13.454;2023-09-12T13:14:56;28.40;74.70
6538;DHT22;3302;52.508;13.454;2023-09-12T13:17:22;28.40;74.60
6538;DHT22;3302;52.508;13.454;2023-09-12T13:19:49;28.30;74.90
6538;DHT22;3302;52.508;13.454;2023-09-12T13:22:15;28.40;76.00
6538;DHT22;3302;52.508;13.454;2023-09-12T13:24:41;28.30;75.10
6538;DHT22;3302;52.508;13.454;2023-09-12T13:27:06;28.30;74.60
6538;DHT22;3302;52.508;13.454;2023-09-12T13:29:32;28.30;73.80
6538;DHT22;3302;52.508;13.454;2023-09-12T13:31:58;28.20;73.60
6538;DHT22;3302;52.508;13.454;2023-09-12T13:34:24;28.20;73.70
6538;DHT22;3302;52.508;13.454;2023-09-12T13:36:49;28.40;74.00
6538;DHT22;3302;52.508;13.454;2023-09-12T13:39:15;28.50;73.10
6538;DHT22;3302;52.508;13.454;2023-09-12T13:41:43;28.50;72.40
6538;DHT22;3302;52.508;13.454;2023-09-12T13:44:10;28.50;73.00
6538;DHT22;3302;52.508;13.454;2023-09-12T13:46:36;28.60;72.20
6538;DHT22;3302;52.508;13.454;2023-09-12T13:49:02;28.60;70.70
6538;DHT22;3302;52.508;13.454;2023-09-12T13:51:29;28.80;70.70
6538;DHT22;3302;52.508;13.454;2023-09-12T13:53:55;28.70;70.50
6538;DHT22;3302;52.508;13.454;2023-09-12T13:56:21;28.60;71.30
6538;DHT22;3302;52.508;13.454;2023-09-12T13:58:47;28.60;71.70
6538;DHT22;3302;52.508;13.454;2023-09-12T14:01:13;28.60;71.60
6538;DHT22;3302;52.508;13.454;2023-09-12T14:03:39;28.70;72.00
6538;DHT22;3302;52.508;13.454;2023-09-12T14:06:05;28.80;70.80
6538;DHT22;3302;52.508;13.454;2023-09-12T14:08:30;28.80;71.10
6538;DHT22;3302;52.508;13.454;2023-09-12T14:10:56;29.00;69.00
6538;DHT22;3302;52.508;13.454;2023-09-12T14:13:22;29.10;68.00
6538;DHT22;3302;52.508;13.454;2023-09-12T14:15:49;29.00;67.40
6538;DHT22;3302;52.508;13.454;2023-09-12T14:18:17;28.90;68.50
6538;DHT22;3302;52.508;13.454;2023-09-12T14:20:43;29.10;68.90
6538;DHT22;3302;52.508;13.454;2023-09-12T14:23:09;29.20;68.50
6538;DHT22;3302;52.508;13.454;2023-09-12T14:25:35;29.40;67.60
6538;DHT22;3302;52.508;13.454;2023-09-12T14:28:01;29.60;67.60
6538;DHT22;3302;52.508;13.454;2023-09-12T14:30:30;29.40;66.60
6538;DHT22;3302;52.508;13.454;2023-09-12T14:33:02;29.30;65.90
6538;DHT22;3302;52.508;13.454;2023-09-12T14:35:28;29.30;66.00
6538;DHT22;3302;52.508;13.454;2023-09-12T14:37:54;29.60;64.70
6538;DHT22;3302;52.508;13.454;2023-09-12T14:40:20;29.90;64.60
6538;DHT22;3302;52.508;13.454;2023-09-12T14:42:46;29.70;65.20
6538;DHT22;3302;52.508;13.454;2023-09-12T14:45:13;29.70;64.50
6538;DHT22;3302;52.508;13.454;2023-09-12T14:47:39;29.60;64.00
6538;DHT22;3302;52.508;13.454;2023-09-12T14:50:05;29.80;63.60
6538;DHT22;3302;52.508;13.454;2023-09-12T14:52:31;29.90;64.00
6538;DHT22;3302;52.508;13.454;2023-09-12T14:54:57;29.90;64.40
6538;DHT22;3302;52.508;13.454;2023-09-12T14:57:23;30.00;64.50
6538;DHT22;3302;52.508;13.454;2023-09-12T14:59:50;30.00;64.30
6538;DHT22;3302;52.508;13.454;2023-09-12T15:02:17;29.30;70.90
6538;DHT22;3302;52.508;13.454;2023-09-12T15:04:42;28.50;75.10
6538;DHT22;3302;52.508;13.454;2023-09-12T15:07:08;28.20;78.10
6538;DHT22;3302;52.508;13.454;2023-09-12T15:09:34;27.90;78.80
6538;DHT22;3302;52.508;13.454;2023-09-12T15:12:00;28.20;78.10
6538;DHT22;3302;52.508;13.454;2023-09-12T15:14:25;27.70;79.80
6538;DHT22;3302;52.508;13.454;2023-09-12T15:16:51;27.80;79.50
6538;DHT22;3302;52.508;13.454;2023-09-12T15:19:17;28.00;78.90
6538;DHT22;3302;52.508;13.454;2023-09-12T15:21:43;28.00;78.00
6538;DHT22;3302;52.508;13.454;2023-09-12T15:24:09;27.90;78.60
6538;DHT22;3302;52.508;13.454;2023-09-12T15:26:34;27.70;79.00
6538;DHT22;3302;52.508;13.454;2023-09-12T15:29:00;27.60;79.40
6538;DHT22;3302;52.508;13.454;2023-09-12T15:31:27;27.50;78.70
6538;DHT22;3302;52.508;13.454;2023-09-12T15:33:53;27.70;78.60
6538;DHT22;3302;52.508;13.454;2023-09-12T15:36:21;27.60;77.30
6538;DHT22;3302;52.508;13.454;2023-09-12T15:38:47;27.50;77.80
6538;DHT22;3302;52.508;13.454;2023-09-12T15:41:13;27.30;77.90
6538;DHT22;3302;52.508;13.454;2023-09-12T15:43:39;27.20;79.00
6538;DHT22;3302;52.508;13.454;2023-09-12T15:46:06;27.00;79.50
6538;DHT22;3302;52.508;13.454;2023-09-12T15:48:32;26.90;79.70
6538;DHT22;3302;52.508;13.454;2023-09-12T15:50:58;26.80;80.50
6538;DHT22;3302;52.508;13.454;2023-09-12T15:53:24;26.80;80.30
6538;DHT22;3302;52.508;13.454;2023-09-12T15:55:50;26.70;81.00
6538;DHT22;3302;52.508;13.454;2023-09-12T15:58:17;26.70;81.30